createdAt,value
2022-08-12T00:00:19.964Z,0.00
2022-08-12T00:01:19.957Z,0.00
2022-08-12T00:02:19.937Z,0.00
2022-08-12T00:03:20.871Z,0.00
2022-08-12T00:04:19.951Z,0.00
2022-08-12T00:05:19.901Z,0.00
2022-08-12T00:06:19.885Z,0.00
2022-08-12T00:07:19.875Z,0.00
2022-08-12T00:08:30.880Z,0.00
2022-08-12T00:09:23.154Z,0.00
2022-08-12T00:10:19.853Z,0.00
2022-08-12T00:11:19.872Z,0.00
2022-08-12T00:12:19.846Z,0.00
2022-08-12T00:13:19.818Z,0.00
2022-08-12T00:14:19.802Z,0.00
2022-08-12T00:15:19.800Z,0.00
2022-08-12T00:16:19.810Z,0.00
2022-08-12T00:17:20.634Z,0.00
2022-08-12T00:18:19.771Z,0.00
2022-08-12T00:19:19.759Z,0.00
2022-08-12T00:20:19.737Z,0.00
2022-08-12T00:21:19.750Z,0.00
2022-08-12T00:22:19.730Z,0.00
2022-08-12T00:23:19.702Z,0.00
2022-08-12T00:24:19.693Z,0.00
2022-08-12T00:25:19.678Z,0.00
2022-08-12T00:26:22.629Z,0.00
2022-08-12T00:27:19.668Z,0.00
2022-08-12T00:28:19.654Z,0.00
2022-08-12T00:29:19.639Z,0.00
2022-08-12T00:30:19.646Z,0.00
2022-08-12T00:31:19.651Z,0.00
2022-08-12T00:32:35.144Z,0.00
2022-08-12T00:33:19.593Z,0.00
2022-08-12T00:34:19.593Z,0.00
2022-08-12T00:35:19.582Z,0.00
2022-08-12T00:36:35.066Z,0.00
2022-08-12T00:37:19.552Z,0.00
2022-08-12T00:38:19.557Z,0.00
2022-08-12T00:39:19.585Z,0.00
2022-08-12T00:40:19.542Z,0.00
2022-08-12T00:41:19.535Z,0.00
2022-08-12T00:42:19.504Z,0.00
2022-08-12T00:43:19.487Z,0.00
2022-08-12T00:44:19.481Z,0.00
2022-08-12T00:45:19.464Z,0.00
2022-08-12T00:47:28.740Z,0.00
2022-08-12T00:48:29.694Z,0.00
2022-08-12T00:49:29.683Z,0.00
2022-08-12T00:50:29.673Z,0.00
2022-08-12T00:51:29.665Z,0.00
2022-08-12T00:52:29.685Z,0.00
2022-08-12T00:53:29.644Z,0.00
2022-08-12T00:54:29.626Z,0.00
2022-08-12T00:55:29.620Z,0.00
2022-08-12T00:56:29.603Z,0.00
2022-08-12T00:57:29.616Z,0.00
2022-08-12T00:58:29.582Z,0.00
2022-08-12T00:59:29.579Z,0.00
2022-08-12T01:00:29.592Z,0.00
2022-08-12T01:01:29.637Z,0.00
2022-08-12T01:02:29.562Z,0.00
2022-08-12T01:03:29.534Z,0.00
2022-08-12T01:04:29.519Z,0.00
2022-08-12T01:05:29.520Z,0.00
2022-08-12T01:06:29.498Z,0.00
2022-08-12T01:07:29.511Z,0.00
2022-08-12T01:08:29.487Z,0.00
2022-08-12T01:09:29.464Z,0.00
2022-08-12T01:10:29.740Z,0.00
2022-08-12T01:11:29.444Z,0.00
2022-08-12T01:12:29.454Z,0.00
2022-08-12T01:13:29.421Z,0.00
2022-08-12T01:14:29.411Z,0.00
2022-08-12T01:15:29.398Z,0.00
2022-08-12T01:16:29.393Z,0.00
2022-08-12T01:17:29.397Z,0.00
2022-08-12T01:18:29.372Z,0.00
2022-08-12T01:19:29.355Z,0.00
2022-08-12T01:20:29.343Z,0.00
2022-08-12T01:21:29.347Z,0.00
2022-08-12T01:22:29.348Z,0.00
2022-08-12T01:23:29.332Z,0.00
2022-08-12T01:24:31.096Z,0.00
2022-08-12T01:25:29.289Z,0.00
2022-08-12T01:26:29.276Z,0.00
2022-08-12T01:27:29.283Z,0.00
2022-08-12T01:28:29.281Z,0.00
2022-08-12T01:29:32.690Z,0.00
2022-08-12T01:30:29.234Z,0.00
2022-08-12T01:31:29.365Z,0.00
2022-08-12T01:32:29.297Z,0.00
2022-08-12T01:33:29.207Z,0.00
2022-08-12T01:34:36.270Z,0.00
2022-08-12T01:35:29.173Z,0.00
2022-08-12T01:36:29.168Z,0.00
2022-08-12T01:37:29.178Z,0.00
2022-08-12T01:38:29.794Z,0.00
2022-08-12T01:39:29.174Z,0.00
2022-08-12T01:40:33.684Z,0.00
2022-08-12T01:41:29.123Z,0.00
2022-08-12T01:42:29.109Z,0.00
2022-08-12T01:43:29.092Z,0.00
2022-08-12T01:44:29.076Z,0.00
2022-08-12T01:45:29.063Z,0.00
2022-08-12T01:46:29.083Z,0.00
2022-08-12T01:47:29.047Z,0.00
2022-08-12T01:48:29.033Z,0.00
2022-08-12T01:49:29.021Z,0.00
2022-08-12T01:50:29.009Z,0.00
2022-08-12T01:52:15.637Z,0.00
2022-08-12T01:52:28.991Z,0.00
2022-08-12T01:53:28.971Z,0.00
2022-08-12T01:54:28.962Z,0.00
2022-08-12T01:55:28.968Z,0.00
2022-08-12T01:56:28.941Z,0.00
2022-08-12T01:57:59.574Z,0.00
2022-08-12T01:58:28.924Z,0.00
2022-08-12T01:59:28.910Z,0.00
2022-08-12T02:00:35.840Z,0.00
2022-08-12T02:01:28.942Z,0.00
2022-08-12T02:02:28.871Z,0.00
2022-08-12T02:03:28.861Z,0.00
2022-08-12T02:04:28.887Z,0.00
2022-08-12T02:05:28.842Z,0.00
2022-08-12T02:06:28.833Z,0.00
2022-08-12T02:07:28.821Z,0.00
2022-08-12T02:08:28.805Z,0.00
2022-08-12T02:09:28.825Z,0.00
2022-08-12T02:10:49.191Z,0.00
2022-08-12T02:11:28.770Z,0.00
2022-08-12T02:12:28.772Z,0.00
2022-08-12T02:13:48.640Z,0.00
2022-08-12T02:14:28.766Z,0.00
2022-08-12T02:15:28.730Z,0.00
2022-08-12T02:16:28.715Z,0.00
2022-08-12T02:17:55.285Z,0.00
2022-08-12T02:18:28.698Z,0.00
2022-08-12T02:19:28.711Z,0.00
2022-08-12T02:20:35.362Z,0.00
2022-08-12T02:21:28.659Z,0.00
2022-08-12T02:22:28.652Z,0.00
2022-08-12T02:23:28.652Z,0.00
2022-08-12T02:24:28.658Z,0.00
2022-08-12T02:25:28.620Z,0.00
2022-08-12T02:26:28.614Z,0.00
2022-08-12T02:27:28.595Z,0.00
2022-08-12T02:28:28.590Z,0.00
2022-08-12T02:29:28.600Z,0.00
2022-08-12T02:30:33.176Z,0.00
2022-08-12T02:31:28.553Z,0.00
2022-08-12T02:32:28.545Z,0.00
2022-08-12T02:33:28.535Z,0.00
2022-08-12T02:34:28.542Z,0.00
2022-08-12T02:35:28.513Z,0.00
2022-08-12T02:36:28.495Z,0.00
2022-08-12T02:37:28.483Z,0.00
2022-08-12T02:38:28.475Z,0.00
2022-08-12T02:39:28.543Z,0.00
2022-08-12T02:40:28.456Z,0.00
2022-08-12T02:41:28.453Z,0.00
2022-08-12T02:42:28.433Z,0.00
2022-08-12T02:43:28.437Z,0.00
2022-08-12T02:44:28.455Z,0.00
2022-08-12T02:45:28.416Z,0.00
2022-08-12T02:46:28.388Z,0.00
2022-08-12T02:48:37.331Z,0.00
2022-08-12T02:49:38.346Z,0.00
2022-08-12T02:50:38.317Z,0.00
2022-08-12T02:51:38.297Z,0.00
2022-08-12T02:52:38.281Z,0.00
2022-08-12T02:53:38.274Z,0.00
2022-08-12T02:54:38.290Z,0.00
2022-08-12T02:55:38.249Z,0.00
2022-08-12T02:56:38.319Z,0.00
2022-08-12T02:57:38.231Z,0.00
2022-08-12T02:58:41.369Z,0.00
2022-08-12T02:59:38.229Z,0.00
2022-08-12T03:00:38.375Z,0.00
2022-08-12T03:01:47.647Z,0.00
2022-08-12T03:02:38.179Z,0.00
2022-08-12T03:03:38.169Z,0.00
2022-08-12T03:04:43.041Z,0.00
2022-08-12T03:05:38.608Z,0.00
2022-08-12T03:06:38.128Z,0.00
2022-08-12T03:07:59.627Z,0.00
2022-08-12T03:08:38.111Z,0.00
2022-08-12T03:10:04.912Z,0.00
2022-08-12T03:10:38.109Z,0.00
2022-08-12T03:11:42.146Z,0.00
2022-08-12T03:12:48.798Z,0.00
2022-08-12T03:13:38.055Z,0.00
2022-08-12T03:14:38.044Z,0.00
2022-08-12T03:15:38.040Z,0.00
2022-08-12T03:16:38.228Z,0.00
2022-08-12T03:17:38.042Z,0.00
2022-08-12T03:18:37.997Z,0.00
2022-08-12T03:19:38.087Z,0.00
2022-08-12T03:20:37.972Z,0.00
2022-08-12T03:21:55.313Z,0.00
2022-08-12T03:22:37.974Z,0.00
2022-08-12T03:23:37.946Z,0.00
2022-08-12T03:24:37.941Z,0.00
2022-08-12T03:25:37.923Z,0.00
2022-08-12T03:26:37.945Z,0.00
2022-08-12T03:27:37.927Z,4.00
2022-08-12T03:28:37.896Z,0.00
2022-08-12T03:29:49.858Z,0.00
2022-08-12T03:30:37.867Z,4.00
2022-08-12T03:31:37.850Z,4.00
2022-08-12T03:32:37.873Z,0.00
2022-08-12T03:33:37.849Z,4.00
2022-08-12T03:34:37.820Z,4.00
2022-08-12T03:35:41.140Z,8.00
2022-08-12T03:36:37.802Z,8.00
2022-08-12T03:37:37.812Z,8.00
2022-08-12T03:38:37.775Z,8.00
2022-08-12T03:39:37.773Z,8.00
2022-08-12T03:40:37.758Z,12.00
2022-08-12T03:41:37.745Z,12.00
2022-08-12T03:42:38.347Z,16.00
2022-08-12T03:43:37.722Z,16.00
2022-08-12T03:44:37.711Z,20.00
2022-08-12T03:45:50.093Z,24.00
2022-08-12T03:46:37.692Z,24.00
2022-08-12T03:47:37.677Z,32.00
2022-08-12T03:48:37.704Z,36.00
2022-08-12T03:49:37.655Z,40.00
2022-08-12T03:50:37.639Z,44.00
2022-08-12T03:51:37.639Z,48.00
2022-08-12T03:52:37.620Z,56.00
2022-08-12T03:53:37.616Z,64.00
2022-08-12T03:54:42.125Z,76.00
2022-08-12T03:55:37.598Z,84.00
2022-08-12T03:56:37.599Z,92.00
2022-08-12T03:57:37.599Z,100.00
2022-08-12T03:58:37.559Z,116.00
2022-08-12T03:59:37.539Z,128.00
2022-08-12T04:00:37.637Z,144.00
2022-08-12T04:01:40.865Z,156.00
2022-08-12T04:02:37.532Z,172.00
2022-08-12T04:03:37.512Z,192.00
2022-08-12T04:04:37.492Z,204.00
2022-08-12T04:05:56.092Z,228.00
2022-08-12T04:06:37.546Z,244.00
2022-08-12T04:07:37.485Z,264.00
2022-08-12T04:08:37.444Z,288.00
2022-08-12T04:09:37.443Z,312.00
2022-08-12T04:10:37.422Z,336.00
2022-08-12T04:11:37.413Z,360.00
2022-08-12T04:12:37.455Z,384.00
2022-08-12T04:13:37.389Z,412.00
2022-08-12T04:14:37.379Z,440.00
2022-08-12T04:15:37.377Z,472.00
2022-08-12T04:16:37.359Z,500.00
2022-08-12T04:17:37.403Z,532.00
2022-08-12T04:18:37.335Z,564.00
2022-08-12T04:19:37.329Z,592.00
2022-08-12T04:20:37.319Z,628.00
2022-08-12T04:21:37.304Z,668.00
2022-08-12T04:22:37.317Z,696.00
2022-08-12T04:23:37.287Z,732.00
2022-08-12T04:24:38.023Z,768.00
2022-08-12T04:25:37.261Z,804.00
2022-08-12T04:26:37.258Z,844.00
2022-08-12T04:27:37.260Z,880.00
2022-08-12T04:28:37.235Z,920.00
2022-08-12T04:30:29.422Z,956.00
2022-08-12T04:30:37.201Z,996.00
2022-08-12T04:31:37.192Z,1032.00
2022-08-12T04:32:40.966Z,1076.00
2022-08-12T04:33:37.169Z,1112.00
2022-08-12T04:34:37.155Z,1152.00
2022-08-12T04:35:37.154Z,1188.00
2022-08-12T04:36:37.140Z,1224.00
2022-08-12T04:37:58.220Z,1264.00
2022-08-12T04:38:37.124Z,1304.00
2022-08-12T04:39:37.120Z,1340.00
2022-08-12T04:40:37.092Z,1380.00
2022-08-12T04:41:37.082Z,1420.00
2022-08-12T04:42:37.109Z,1456.00
2022-08-12T04:43:59.672Z,1496.00
2022-08-12T04:44:37.053Z,1532.00
2022-08-12T04:45:37.047Z,1572.00
2022-08-12T04:46:37.023Z,1608.00
2022-08-12T04:47:37.011Z,1648.00
2022-08-12T04:49:46.109Z,1728.00
2022-08-12T04:50:46.945Z,1760.00
2022-08-12T04:51:56.785Z,1792.00
2022-08-12T04:52:46.952Z,1820.00
2022-08-12T04:53:46.912Z,1856.00
2022-08-12T04:54:46.908Z,1888.00
2022-08-12T04:55:46.897Z,1920.00
2022-08-12T04:57:04.259Z,1948.00
2022-08-12T04:57:47.025Z,1980.00
2022-08-12T04:58:52.024Z,2016.00
2022-08-12T04:59:48.926Z,2076.00
2022-08-12T05:00:46.840Z,2112.00
2022-08-12T05:01:46.825Z,2144.00
2022-08-12T05:02:47.242Z,2176.00
2022-08-12T05:03:47.469Z,2208.00
2022-08-12T05:04:46.797Z,2244.00
2022-08-12T05:05:46.783Z,2276.00
2022-08-12T05:06:46.777Z,2316.00
2022-08-12T05:07:54.882Z,2348.00
2022-08-12T05:08:46.756Z,2380.00
2022-08-12T05:09:59.126Z,2416.00
2022-08-12T05:10:46.748Z,2448.00
2022-08-12T05:11:54.359Z,2484.00
2022-08-12T05:12:46.736Z,2524.00
2022-08-12T05:13:46.698Z,2568.00
2022-08-12T05:14:46.693Z,2656.00
2022-08-12T05:15:53.026Z,3100.00
2022-08-12T05:16:46.659Z,3724.00
2022-08-12T05:17:47.097Z,4228.00
2022-08-12T05:18:46.653Z,4372.00
2022-08-12T05:19:46.629Z,4416.00
2022-08-12T05:20:46.617Z,4528.00
2022-08-12T05:21:46.610Z,4708.00
2022-08-12T05:22:46.621Z,4824.00
2022-08-12T05:23:46.615Z,4888.00
2022-08-12T05:24:46.576Z,4944.00
2022-08-12T05:25:46.559Z,5012.00
2022-08-12T05:26:46.548Z,5072.00
2022-08-12T05:27:55.454Z,5116.00
2022-08-12T05:28:46.542Z,5144.00
2022-08-12T05:30:08.355Z,5176.00
2022-08-12T05:30:46.511Z,5224.00
2022-08-12T05:31:48.113Z,5276.00
2022-08-12T05:32:46.513Z,5316.00
2022-08-12T05:33:46.475Z,5352.00
2022-08-12T05:34:46.467Z,5404.00
2022-08-12T05:35:46.443Z,5436.00
2022-08-12T05:36:46.433Z,5472.00
2022-08-12T05:37:46.454Z,5512.00
2022-08-12T05:38:46.446Z,5556.00
2022-08-12T05:39:46.466Z,5604.00
2022-08-12T05:40:46.416Z,5652.00
2022-08-12T05:41:46.415Z,5696.00
2022-08-12T05:42:46.697Z,5748.00
2022-08-12T05:43:46.362Z,5772.00
2022-08-12T05:44:46.356Z,5796.00
2022-08-12T05:45:46.335Z,5816.00
2022-08-12T05:46:46.330Z,5840.00
2022-08-12T05:47:53.774Z,5868.00
2022-08-12T05:48:46.312Z,5884.00
2022-08-12T05:49:46.303Z,5924.00
2022-08-12T05:50:46.308Z,5960.00
2022-08-12T05:51:46.272Z,6000.00
2022-08-12T05:52:46.305Z,6040.00
2022-08-12T05:53:46.279Z,6076.00
2022-08-12T05:54:57.063Z,6112.00
2022-08-12T05:55:46.231Z,6148.00
2022-08-12T05:56:46.225Z,6192.00
2022-08-12T05:57:46.254Z,6220.00
2022-08-12T05:58:46.220Z,6260.00
2022-08-12T05:59:46.192Z,6288.00
2022-08-12T06:00:46.178Z,6324.00
2022-08-12T06:02:09.254Z,6356.00
2022-08-12T06:02:46.275Z,6392.00
2022-08-12T06:03:46.158Z,6432.00
2022-08-12T06:04:46.122Z,6464.00
2022-08-12T06:05:54.904Z,6504.00
2022-08-12T06:06:46.130Z,6520.00
2022-08-12T06:08:02.119Z,6564.00
2022-08-12T06:08:46.090Z,6608.00
2022-08-12T06:09:46.083Z,6652.00
2022-08-12T06:10:46.172Z,6692.00
2022-08-12T06:12:04.751Z,6736.00
2022-08-12T06:12:46.082Z,6764.00
2022-08-12T06:13:53.728Z,6816.00
2022-08-12T06:14:46.029Z,6852.00
2022-08-12T06:15:46.008Z,6884.00
2022-08-12T06:16:46.052Z,6924.00
2022-08-12T06:17:46.043Z,6948.00
2022-08-12T06:18:46.049Z,6988.00
2022-08-12T06:20:26.591Z,7028.00
2022-08-12T06:20:45.952Z,7064.00
2022-08-12T06:21:46.010Z,7108.00
2022-08-12T06:22:45.949Z,7140.00
2022-08-12T06:23:45.959Z,7192.00
2022-08-12T06:24:45.911Z,7232.00
2022-08-12T06:25:45.917Z,7256.00
2022-08-12T06:26:45.889Z,7296.00
2022-08-12T06:28:06.824Z,7348.00
2022-08-12T06:28:45.894Z,7400.00
2022-08-12T06:30:08.847Z,7440.00
2022-08-12T06:30:53.106Z,7488.00
2022-08-12T06:31:45.875Z,7528.00
2022-08-12T06:32:51.808Z,7560.00
2022-08-12T06:34:00.577Z,7604.00
2022-08-12T06:35:24.027Z,7640.00
2022-08-12T06:35:48.867Z,7692.00
2022-08-12T06:36:46.456Z,7724.00
2022-08-12T06:50:07.074Z,8368.00
2022-08-12T06:55:19.507Z,8528.00
2022-08-12T06:55:26.449Z,8672.00
2022-08-12T06:56:14.820Z,7952.00
2022-08-12T06:56:59.706Z,8404.00
2022-08-12T06:57:02.953Z,8480.00
2022-08-12T07:00:34.689Z,9048.00
2022-08-12T07:02:37.839Z,9172.00
2022-08-12T07:06:34.194Z,9484.00
2022-08-12T07:11:03.646Z,9592.00
2022-08-12T07:22:02.510Z,10252.00
2022-08-12T07:22:02.614Z,10316.00
2022-08-12T07:22:07.186Z,9896.00
2022-08-12T07:22:12.001Z,10356.00
2022-08-12T07:23:00.550Z,10420.00
2022-08-12T07:23:31.156Z,10084.00
2022-08-12T07:23:39.350Z,10140.00
2022-08-12T07:23:47.543Z,9852.00
2022-08-12T07:24:00.544Z,10472.00
2022-08-12T07:24:51.035Z,10016.00
2022-08-12T07:24:51.037Z,9956.00
2022-08-12T07:25:00.640Z,10520.00
2022-08-12T07:26:00.506Z,10552.00
2022-08-12T07:27:00.543Z,10612.00
2022-08-12T07:28:00.517Z,10676.00
2022-08-12T07:29:00.493Z,10712.00
2022-08-12T07:30:04.762Z,10776.00
2022-08-12T07:31:03.445Z,10804.00
2022-08-12T07:32:15.252Z,10852.00
2022-08-12T07:33:01.863Z,10904.00
2022-08-12T07:34:00.419Z,10960.00
2022-08-12T07:35:00.419Z,10992.00
2022-08-12T07:36:00.415Z,11012.00
2022-08-12T07:37:00.490Z,11092.00
2022-08-12T07:38:00.833Z,11116.00
2022-08-12T07:39:00.356Z,11172.00
2022-08-12T07:40:01.333Z,11212.00
2022-08-12T07:41:00.348Z,11244.00
2022-08-12T07:42:00.318Z,11324.00
2022-08-12T07:43:00.330Z,11368.00
2022-08-12T07:44:04.473Z,11428.00
2022-08-12T07:45:00.290Z,11448.00
2022-08-12T07:46:00.289Z,11476.00
2022-08-12T07:47:00.260Z,11536.00
2022-08-12T07:48:00.291Z,11592.00
2022-08-12T07:49:00.244Z,11652.00
2022-08-12T07:50:03.593Z,11700.00
2022-08-12T07:51:00.232Z,11752.00
2022-08-12T07:52:00.285Z,11828.00
2022-08-12T07:53:00.229Z,11860.00
2022-08-12T07:54:02.952Z,11892.00
2022-08-12T07:55:00.193Z,11940.00
2022-08-12T07:56:00.201Z,12008.00
2022-08-12T07:57:00.163Z,12084.00
2022-08-12T07:58:00.197Z,12152.00
2022-08-12T07:59:00.158Z,12176.00
2022-08-12T08:00:00.471Z,12216.00
2022-08-12T08:01:00.336Z,12292.00
2022-08-12T08:02:00.206Z,12400.00
2022-08-12T08:03:00.116Z,12480.00
2022-08-12T08:04:00.141Z,12548.00
2022-08-12T08:05:00.082Z,12608.00
2022-08-12T08:06:00.107Z,12636.00
2022-08-12T08:07:00.066Z,12664.00
2022-08-12T08:08:00.051Z,12684.00
2022-08-12T08:09:00.046Z,12728.00
2022-08-12T08:10:00.305Z,12804.00
2022-08-12T08:11:04.182Z,12824.00
2022-08-12T08:11:59.998Z,12832.00
2022-08-12T08:13:00.239Z,12932.00
2022-08-12T08:14:00.000Z,12980.00
2022-08-12T08:14:59.967Z,13012.00
2022-08-12T08:16:04.097Z,13044.00
2022-08-12T08:16:59.943Z,13092.00
2022-08-12T08:17:59.938Z,13108.00
2022-08-12T08:19:00.611Z,13096.00
2022-08-12T08:20:03.359Z,13188.00
2022-08-12T08:20:59.949Z,13280.00
2022-08-12T08:22:00.820Z,13292.00
2022-08-12T08:22:59.885Z,13332.00
2022-08-12T08:24:05.112Z,13372.00
2022-08-12T08:24:59.868Z,13404.00
2022-08-12T08:25:59.894Z,13464.00
2022-08-12T08:27:03.039Z,13528.00
2022-08-12T08:27:59.828Z,13596.00
2022-08-12T08:28:59.868Z,13596.00
2022-08-12T08:29:59.790Z,13600.00
2022-08-12T08:30:59.816Z,13632.00
2022-08-12T08:31:59.790Z,13676.00
2022-08-12T08:32:59.771Z,13656.00
2022-08-12T08:34:33.190Z,13676.00
2022-08-12T08:34:59.758Z,13712.00
2022-08-12T08:35:59.781Z,13748.00
2022-08-12T08:36:59.737Z,13776.00
2022-08-12T08:37:59.759Z,13808.00
2022-08-12T08:38:59.753Z,13880.00
2022-08-12T08:39:59.728Z,13872.00
2022-08-12T08:40:59.726Z,13912.00
2022-08-12T08:42:19.187Z,13980.00
2022-08-12T08:42:59.667Z,13960.00
2022-08-12T08:43:59.669Z,13972.00
2022-08-12T08:44:59.668Z,13976.00
2022-08-12T08:45:59.756Z,13968.00
2022-08-12T08:46:59.659Z,14080.00
2022-08-12T08:48:00.373Z,14132.00
2022-08-12T08:48:59.710Z,14148.00
2022-08-12T08:49:59.615Z,14176.00
2022-08-12T08:51:04.846Z,14152.00
2022-08-12T08:51:59.559Z,14144.00
2022-08-12T08:52:59.555Z,14188.00
2022-08-12T08:53:59.593Z,14156.00
2022-08-12T08:54:59.520Z,14184.00
2022-08-12T08:56:05.771Z,14208.00
2022-08-12T08:57:00.523Z,14260.00
2022-08-12T09:15:35.778Z,14460.00
2022-08-12T09:16:08.810Z,14476.00
2022-08-12T09:16:23.935Z,14348.00
2022-08-12T09:16:41.314Z,14496.00
2022-08-12T09:16:50.513Z,14552.00
2022-08-12T09:17:08.843Z,14504.00
2022-08-12T09:17:21.351Z,14476.00
2022-08-12T09:17:42.862Z,14540.00
2022-08-12T09:19:08.749Z,14536.00
2022-08-12T09:20:09.105Z,14588.00
2022-08-12T09:21:08.779Z,14604.00
2022-08-12T09:22:09.466Z,14628.00
2022-08-12T09:23:57.050Z,14652.00
2022-08-12T09:24:08.735Z,14664.00
2022-08-12T09:25:08.723Z,14640.00
2022-08-12T09:26:08.699Z,14584.00
2022-08-12T09:27:12.263Z,14528.00
2022-08-12T09:28:10.733Z,14592.00
2022-08-12T09:29:12.318Z,14580.00
2022-08-12T09:30:13.433Z,14560.00
2022-08-12T09:32:06.913Z,14560.00
2022-08-12T09:32:09.946Z,14564.00
2022-08-12T09:33:18.455Z,14568.00
2022-08-12T09:34:28.503Z,14584.00
2022-08-12T09:35:21.918Z,14604.00
2022-08-12T09:36:08.592Z,14580.00
2022-08-12T09:37:19.539Z,14560.00
2022-08-12T09:38:28.142Z,14604.00
2022-08-12T09:40:05.115Z,14640.00
2022-08-12T09:40:57.840Z,14612.00
2022-08-12T09:42:33.859Z,14608.00
2022-08-12T09:42:40.382Z,14656.00
2022-08-12T09:43:16.862Z,14644.00
2022-08-12T09:44:39.271Z,14620.00
2022-08-12T09:45:17.810Z,14640.00
2022-08-12T09:46:21.728Z,14604.00
2022-08-12T09:47:10.618Z,14632.00
2022-08-12T09:48:08.433Z,14620.00
2022-08-12T09:49:13.589Z,14648.00
2022-08-12T09:50:08.419Z,14560.00
2022-08-12T09:51:17.163Z,14572.00
2022-08-12T09:52:08.395Z,14592.00
2022-08-12T09:53:15.041Z,14568.00
2022-08-12T09:54:34.215Z,14588.00
2022-08-12T09:55:08.430Z,14544.00
2022-08-12T09:57:00.080Z,14584.00
2022-08-12T09:58:44.821Z,14540.00
2022-08-12T09:58:57.108Z,14576.00
2022-08-12T09:59:08.324Z,14600.00
2022-08-12T10:00:12.618Z,14604.00
2022-08-12T10:01:15.299Z,14596.00
2022-08-12T10:02:44.867Z,14624.00
2022-08-12T10:03:08.688Z,14656.00
2022-08-12T10:04:08.372Z,14600.00
2022-08-12T10:05:13.329Z,14624.00
2022-08-12T10:06:20.595Z,14664.00
2022-08-12T10:07:12.308Z,14596.00
2022-08-12T10:08:08.240Z,14536.00
2022-08-12T10:09:08.688Z,14480.00
2022-08-12T10:10:08.207Z,14564.00
2022-08-12T10:11:08.188Z,14468.00
2022-08-12T10:12:11.288Z,14444.00
2022-08-12T10:13:11.967Z,14500.00
2022-08-12T10:14:13.334Z,14432.00
2022-08-12T10:15:08.173Z,14484.00
2022-08-12T10:16:08.259Z,14496.00
2022-08-12T10:17:08.514Z,14492.00
2022-08-12T10:18:08.254Z,14516.00
2022-08-12T10:19:17.326Z,14448.00
2022-08-12T10:20:09.846Z,14488.00
2022-08-12T10:21:08.118Z,14576.00
2022-08-12T10:22:17.058Z,14536.00
2022-08-12T10:23:08.075Z,14504.00
2022-08-12T10:24:08.085Z,14528.00
2022-08-12T10:25:17.698Z,14516.00
2022-08-12T10:26:38.001Z,14516.00
2022-08-12T10:27:08.182Z,14588.00
2022-08-12T10:28:14.895Z,14504.00
2022-08-12T10:30:01.297Z,14504.00
2022-08-12T10:30:41.671Z,14488.00
2022-08-12T10:31:16.501Z,14420.00
2022-08-12T10:32:22.150Z,14396.00
2022-08-12T10:33:17.879Z,14424.00
2022-08-12T10:34:14.848Z,14404.00
2022-08-12T10:35:07.960Z,14392.00
2022-08-12T10:36:08.133Z,14384.00
2022-08-12T10:40:46.277Z,14360.00
2022-08-12T10:53:45.402Z,14280.00
2022-08-12T11:01:26.081Z,14112.00
2022-08-12T11:01:49.668Z,14244.00
2022-08-12T11:01:50.331Z,14140.00
2022-08-12T11:04:19.068Z,14044.00
2022-08-12T11:04:24.119Z,13976.00
2022-08-12T11:04:26.007Z,14272.00
2022-08-12T11:04:27.575Z,14228.00
2022-08-12T11:04:31.296Z,14024.00
2022-08-12T11:07:03.526Z,13932.00
2022-08-12T11:07:06.647Z,13916.00
2022-08-12T11:08:35.192Z,13960.00
2022-08-12T11:08:38.602Z,13940.00
2022-08-12T11:09:10.230Z,13968.00
2022-08-12T11:10:06.923Z,13908.00
2022-08-12T11:11:13.396Z,13944.00
2022-08-12T11:12:34.899Z,13964.00
2022-08-12T11:13:07.221Z,13944.00
2022-08-12T11:14:06.853Z,13932.00
2022-08-12T11:15:18.503Z,13888.00
2022-08-12T11:16:22.091Z,13916.00
2022-08-12T11:17:34.736Z,13852.00
2022-08-12T11:18:06.835Z,13840.00
2022-08-12T11:19:06.799Z,13840.00
2022-08-12T11:20:06.683Z,13876.00
2022-08-12T11:21:06.665Z,13828.00
2022-08-12T11:22:06.669Z,13824.00
2022-08-12T11:23:25.206Z,13788.00
2022-08-12T11:24:06.662Z,13800.00
2022-08-12T11:25:10.593Z,13728.00
2022-08-12T11:26:07.244Z,13772.00
2022-08-12T11:27:07.907Z,13748.00
2022-08-12T11:28:06.645Z,13768.00
2022-08-12T11:29:22.837Z,13728.00
2022-08-12T11:30:30.747Z,13676.00
2022-08-12T11:31:06.598Z,13648.00
2022-08-12T11:32:06.549Z,13540.00
2022-08-12T11:33:11.639Z,13656.00
2022-08-12T11:34:52.904Z,13680.00
2022-08-12T11:35:06.535Z,13648.00
2022-08-12T11:36:14.840Z,13648.00
2022-08-12T11:37:06.468Z,13604.00
2022-08-12T11:38:06.457Z,13556.00
2022-08-12T11:39:06.456Z,13560.00
2022-08-12T11:40:06.447Z,13468.00
2022-08-12T11:41:06.530Z,13540.00
2022-08-12T11:42:06.439Z,13444.00
2022-08-12T11:43:19.349Z,13496.00
2022-08-12T11:44:35.703Z,13416.00
2022-08-12T11:45:06.375Z,13400.00
2022-08-12T11:46:06.361Z,13312.00
2022-08-12T11:47:09.555Z,13128.00
2022-08-12T11:48:06.361Z,13288.00
2022-08-12T11:49:06.342Z,13296.00
2022-08-12T11:50:06.354Z,13276.00
2022-08-12T11:51:06.312Z,13296.00
2022-08-12T11:52:27.305Z,13288.00
2022-08-12T11:53:06.427Z,13296.00
2022-08-12T11:54:06.281Z,13252.00
2022-08-12T11:55:06.273Z,13264.00
2022-08-12T11:56:06.417Z,13332.00
2022-08-12T11:58:17.186Z,13312.00
2022-08-12T11:58:34.003Z,13340.00
2022-08-12T12:02:06.370Z,13208.00
2022-08-12T12:03:06.290Z,13140.00
2022-08-12T12:04:06.184Z,13120.00
2022-08-12T12:05:06.177Z,13172.00
2022-08-12T12:06:06.175Z,13144.00
2022-08-12T12:07:06.946Z,13132.00
2022-08-12T12:08:38.950Z,13092.00
2022-08-12T12:09:08.171Z,13044.00
2022-08-12T12:10:06.129Z,13076.00
2022-08-12T12:11:09.275Z,12996.00
2022-08-12T12:12:06.122Z,13008.00
2022-08-12T12:13:23.059Z,12976.00
2022-08-12T12:14:08.744Z,12952.00
2022-08-12T12:15:06.947Z,12860.00
2022-08-12T12:16:06.105Z,12864.00
2022-08-12T12:17:06.076Z,12860.00
2022-08-12T12:18:06.064Z,12788.00
2022-08-12T12:19:06.036Z,12788.00
2022-08-12T12:20:06.026Z,12784.00
2022-08-12T12:21:06.028Z,12732.00
2022-08-12T12:22:06.016Z,12692.00
2022-08-12T12:23:06.654Z,12588.00
2022-08-12T12:24:05.983Z,12624.00
2022-08-12T12:25:13.136Z,12508.00
2022-08-12T12:26:07.753Z,12512.00
2022-08-12T12:27:05.948Z,12496.00
2022-08-12T12:28:06.586Z,12472.00
2022-08-12T12:29:11.190Z,12356.00
2022-08-12T12:30:17.534Z,12384.00
2022-08-12T12:31:15.240Z,12376.00
2022-08-12T12:32:11.543Z,12472.00
2022-08-12T12:33:05.921Z,12396.00
2022-08-12T12:34:05.880Z,12400.00
2022-08-12T12:35:14.686Z,12404.00
2022-08-12T12:36:20.291Z,12412.00
2022-08-12T12:37:05.928Z,12372.00
2022-08-12T12:38:12.086Z,12340.00
2022-08-12T12:39:06.569Z,12304.00
2022-08-12T12:40:06.021Z,12256.00
2022-08-12T12:41:16.386Z,12224.00
2022-08-12T12:42:42.762Z,12132.00
2022-08-12T12:43:05.842Z,12168.00
2022-08-12T12:44:05.791Z,12008.00
2022-08-12T12:45:19.443Z,11984.00
2022-08-12T12:46:05.756Z,11960.00
2022-08-12T12:47:29.027Z,11896.00
2022-08-12T12:48:05.771Z,11796.00
2022-08-12T12:49:06.797Z,11828.00
2022-08-12T12:50:06.145Z,11700.00
2022-08-12T12:51:05.715Z,11644.00
2022-08-12T12:52:18.958Z,11556.00
2022-08-12T12:53:05.702Z,11536.00
2022-08-12T12:54:09.380Z,11548.00
2022-08-12T12:55:05.693Z,11484.00
2022-08-12T12:56:05.694Z,11392.00
2022-08-12T12:57:05.657Z,11328.00
2022-08-12T12:58:05.639Z,11336.00
2022-08-12T12:59:05.636Z,11296.00
2022-08-12T13:01:26.610Z,11216.00
2022-08-12T13:02:15.586Z,11108.00
2022-08-12T13:03:19.306Z,11148.00
2022-08-12T13:04:15.542Z,11196.00
2022-08-12T13:05:16.247Z,10988.00
2022-08-12T13:06:15.545Z,11016.00
2022-08-12T13:07:15.518Z,11024.00
2022-08-12T13:08:15.519Z,10992.00
2022-08-12T13:09:15.489Z,10964.00
2022-08-12T13:10:15.477Z,10920.00
2022-08-12T13:11:15.497Z,10936.00
2022-08-12T13:12:15.463Z,10884.00
2022-08-12T13:14:09.060Z,10876.00
2022-08-12T13:14:28.275Z,10808.00
2022-08-12T13:15:15.426Z,10720.00
2022-08-12T13:16:20.752Z,10620.00
2022-08-12T13:17:16.613Z,10568.00
2022-08-12T13:18:15.389Z,10616.00
2022-08-12T13:19:15.386Z,10580.00
2022-08-12T13:20:37.957Z,10464.00
2022-08-12T13:21:15.671Z,10412.00
2022-08-12T13:22:15.397Z,10356.00